KFKA

Fillmore County Airport

Preston, Minnesota, USA
METAR KFKA 141215Z AUTO 00000KT M1/4SM FZFG OVC001 M07/M08 A3021 RMK AO2 T10671076
Observed Flight Rules
Dec-14 @ 12:15 UTC (19 minutes ago) Instrument Flight Rules
Visibility Clouds Conditions
1/4 miles
  • Overcast at 100' AGL
  • Freezing
  • Fog
Temperatures Readings
Current -7°C / 19°F
Dewpoint -8°C / 18°F
Humidity 93%
Altimeter 30.21" Hg
Pressure 1023 hPa
Elevation 389
METAR KFKA 141215Z AUTO 00000KT M1/4SM FZFG OVC001 M07/M08 A3021 RMK AO2 T10671076
Observed Flight Rules
Dec-14 @ 12:15 UTC
(19 minutes ago)
LIFR
Clouds
  • Overcast at 100' AGL
Conditions
  • Freezing
  • Fog
Temperature Dewpoint
-7°C / 19°F -8°C / 18°F
Humidity Altimeter Pressure
93% 30.21" Hg 1023 hPa